• Join FlightAware (Why Join?)
  • Login
  • US Flag 
11:07AM EDT


 

Airport Tracker/Info


-or-


 

Live Flight TrackerFlight Track Log ✈ FLG4048 ✈ 28-Jul-2013 ✈ KCVG - KBDL

Flight Track Log - Related Links

Times and Time Zones

All times are in EDT time to prevent confusion due to time zone crossing. See the FLG4048 flight status page for this flight to view local times or setup timezone preferences in your user account.

Time Position Orientation Groundspeed Altitude Reporting Facility
EDT Latitude Longitude Course Direction KTS MPH feet Rate Location/Type
09:05PM 39.0333 -84.6667 44° Northeast 182 209 1,300  Level Cincinnati TRACON
09:06PM 39.0167 -84.6167 113° Southeast 223 257 2,800 1,560 Climbing Cincinnati TRACON
09:07PM 39.0333 -84.5333 76° East 296 341 4,300 2,100 Climbing Cincinnati TRACON
09:08PM 39.0063 -84.2915 62° Northeast  Level FlightAware Approximate
09:08PM 39.0667 -84.4333 67° East 281 323 7,000  Level Cincinnati TRACON
09:09PM 39.0555 -84.1502 49° Northeast  Level FlightAware Approximate
09:09PM 39.0958 -84.3067 73° East 299 344 10,200  Level Indianapolis Center
09:10PM 39.1390 -84.0346 44° Northeast  Level FlightAware Approximate
09:10PM 39.1297 -84.1908 69° East 340 391 11,200  Level Indianapolis Center
09:11PM 39.1661 -84.0608 70° East 380 437 12,400 1,260 Climbing Indianapolis Center
09:12PM 39.2064 -83.9267 69° East 397 457 13,800 1,320 Climbing Indianapolis Center
09:13PM 39.2578 -83.7956 63° Northeast 407 468 15,200 1,320 Climbing Indianapolis Center
09:14PM 39.3089 -83.6622 64° Northeast 412 474 16,600 1,260 Climbing Indianapolis Center
09:15PM 39.3586 -83.5292 64° Northeast 412 474 17,900 1,260 Climbing Indianapolis Center
09:16PM 39.4097 -83.3958 64° Northeast 412 474 19,300 1,320 Climbing Indianapolis Center
09:18PM 39.4678 -83.2386 64° Northeast 413 475 20,700 1,200 Climbing Indianapolis Center
09:19PM 39.5192 -83.1022 64° Northeast 419 482 21,800 1,020 Climbing Indianapolis Center
09:20PM 39.5719 -82.9633 64° Northeast 425 489 22,800 780 Climbing Indianapolis Center
09:21PM 39.6108 -82.8158 71° East 437 503 23,500 660 Climbing Indianapolis Center
09:22PM 39.6239 -82.6553 84° East 446 513 24,200 600 Climbing Indianapolis Center
09:23PM 39.6364 -82.4908 84° East 454 522 24,800 540 Climbing Indianapolis Center
09:24PM 39.6500 -82.3244 84° East 460 529 25,400 600 Climbing Indianapolis Center
09:25PM 39.6625 -82.1575 84° East 462 532 26,100 660 Climbing Indianapolis Center
09:26PM 39.6761 -81.9872 84° East 459 528 26,800 600 Climbing Indianapolis Center
09:27PM 39.6881 -81.8197 85° East 462 532 27,400 540 Climbing Indianapolis Center
09:28PM 39.6994 -81.6511 85° East 467 537 27,900 480 Climbing Indianapolis Center
09:29PM 39.7133 -81.4578 85° East 467 537 28,500 480 Climbing Indianapolis Center
09:30PM 39.7358 -81.3142 78° East 478 550 28,900 240 Climbing Indianapolis Center
09:31PM 39.7842 -81.1569 68° East 474 545 29,000  Climbing Indianapolis Center
09:32PM 39.8633 -80.9733 61° Northeast 483 556 29,000  Level Indianapolis Center
09:33PM 39.9189 -80.8483 60° Northeast 470 541 29,000  Level Cleveland Center
09:34PM 39.9836 -80.6942 61° Northeast 480 552 29,000  Level Cleveland Center
09:35PM 40.0506 -80.5369 61° Northeast 487 560 29,000 -540 Level Cleveland Center
09:36PM 40.1192 -80.3739 61° Northeast 492 566 28,000 -1,020 Descending Cleveland Center
09:37PM 40.1875 -80.2133 61° Northeast 497 572 27,000 -540 Descending Cleveland Center
09:38PM 40.2536 -80.0472 62° Northeast 503 579 27,000  Level Cleveland Center
09:39PM 40.3194 -79.8969 60° Northeast 510 587 27,000  Level Cleveland Center
09:40PM 40.3872 -79.7300 62° Northeast 510 587 27,000  Level Cleveland Center
09:41PM 40.4544 -79.5625 62° Northeast 510 587 27,000  Level Cleveland Center
09:42PM 40.5217 -79.3978 62° Northeast 510 587 27,000  Level Cleveland Center
09:43PM 40.5806 -79.2489 62° Northeast 510 587 27,000  Level Cleveland Center
09:44PM 40.6575 -79.0614 62° Northeast 516 594 27,000  Level Cleveland Center
09:45PM 40.7278 -78.8789 63° Northeast 516 594 27,000  Level Cleveland Center
09:46PM 40.7961 -78.7069 62° Northeast 516 594 27,000  Level Cleveland Center
09:47PM 40.8581 -78.5544 62° Northeast 522 601 27,000  Level Cleveland Center
09:48PM 40.9236 -78.3847 63° Northeast 522 601 27,000  Level Cleveland Center
09:50PM 41.0522 -78.0519 63° Northeast 515 593 27,000  Level New York Center
09:51PM 41.1189 -77.8800 63° Northeast 515 593 27,000  Level New York Center
09:52PM 41.1853 -77.7106 62° Northeast 515 593 27,000  Level New York Center
09:53PM 41.2494 -77.5378 64° Northeast 515 593 27,000  Level New York Center
09:54PM 41.3131 -77.3672 64° Northeast 515 593 27,000  Level New York Center
09:55PM 41.3789 -77.1967 63° Northeast 515 593 27,000  Level New York Center
09:56PM 41.4419 -77.0256 64° Northeast 515 593 27,000  Level New York Center
09:57PM 41.5144 -76.8356 63° Northeast 520 598 27,000  Level New York Center
09:58PM 41.5719 -76.6856 63° Northeast 510 587 27,000  Level New York Center
09:59PM 41.6347 -76.5106 64° Northeast 510 587 27,000  Level New York Center
10:00PM 41.6969 -76.3381 64° Northeast 510 587 27,000  Level New York Center
10:02PM 41.8553 -75.9078 64° Northeast 516 594 27,000  Level Boston Center
10:03PM 41.9169 -75.7325 65° Northeast 516 594 27,000  Level Boston Center
10:04PM 41.9803 -75.5569 64° Northeast 516 594 27,000  Level Boston Center
10:05PM 42.0411 -75.3839 65° Northeast 516 594 27,000  Level Boston Center
10:06PM 42.1244 -75.2225 55° Northeast 511 588 27,000 -540 Level Boston Center
10:07PM 42.2306 -75.0619 48° Northeast 520 598 26,000 -1,140 Descending Boston Center
10:08PM 42.3233 -74.9169 49° Northeast 520 598 24,800 -1,260 Descending Boston Center
10:09PM 42.4119 -74.7742 50° Northeast 508 585 23,600 -1,200 Descending Boston Center
10:10PM 42.4794 -74.6219 59° Northeast 464 534 22,400 -1,200 Descending Boston Center
10:11PM 42.4828 -74.4417 89° East 448 516 21,200 -1,200 Descending Boston Center
10:12PM 42.4836 -74.2672 90° East 459 528 20,100 -1,200 Descending Boston Center
10:13PM 42.4864 -74.0956 89° East 459 528 18,900 -1,260 Descending Boston Center
10:14PM 42.4864 -73.9294 90° East 448 516 17,600 -1,260 Descending Boston Center
10:15PM 42.4886 -73.7661 89° East 440 506 16,400 -1,320 Descending Boston Center
10:16PM 42.4903 -73.6114 89° East 418 481 15,000 -1,320 Descending Boston Center
10:17PM 42.4875 -73.4592 91° East 407 468 13,800 -1,320 Descending Boston Center
10:18PM 42.4217 -73.3514 130° Southeast 357 411 12,400 -1,260 Descending Boston Center
10:19PM 42.3517 -73.2492 133° Southeast 362 417 11,400 -720 Descending Boston Center
10:20PM 42.3044 -73.1475 122° Southeast 367 422 11,000 -840 Descending Boston Center
10:21PM 42.2550 -73.0461 123° Southeast 321 369 9,700 -1,500 Descending Boston Center
10:22PM 42.2178 -72.9728 124° Southeast 276 318 8,100 -1,920 Descending Boston Center
10:23PM 42.1725 -72.8800 123° Southeast 264 304 6,000 -1,920 Descending Boston Center
10:24PM 42.1350 -72.8069 125° Southeast 264 304 4,300 -1,740 Descending Boston Center
10:25PM 42.1122 -72.7647 126° Southeast 256 295 3,400 -1,680 Descending Boston Center
10:25PM 42.0917 -72.7228 123° Southeast 259 298 2,600 -600 Descending Boston Center
10:26PM 42.0606 -72.6581 123° Southeast 238 274 2,500 -300 Descending Boston Center
10:27PM 42.0294 -72.5994 126° Southeast 209 241 2,100 -600 Descending Boston Center
10:28PM 41.9897 -72.6244 205° Southwest 123 142 1,300 -780 Descending Boston Center
10:29PM 41.9647 -72.6578 225° Southwest 118 136 600 -480 Descending Boston Center
10:30PM 41.9311 -72.6744 200° South 124 143 400 -240 Descending Boston Center